Time;durP1;ratioP1;P1;durP2;ratioP2;P2;SDS_P1;SDS_P2;PMS_P1;PMS_P2;Temp;Humidity;BMP_temperature;BMP_pressure;BME280_temperature;BME280_humidity;BME280_pressure;Samples;Min_cycle;Max_cycle;Signal;HPM_P1;HPM_P2
2022/05/21 00:01:11;;;;;;;6.07;4.50;;;11.80;99.90;;;;;;5094676;28;20212;-39
2022/05/21 00:03:37;;;;;;;6.00;4.00;;;11.70;99.90;;;;;;5094695;28;20272;-38
2022/05/21 00:06:02;;;;;;;5.70;4.20;;;11.70;99.90;;;;;;5094257;28;20189;-40
2022/05/21 00:08:28;;;;;;;8.40;4.07;;;11.70;99.90;;;;;;5094853;28;20283;-40
2022/05/21 00:10:54;;;;;;;7.17;4.07;;;11.70;99.90;;;;;;5094305;28;20195;-38
2022/05/21 00:13:19;;;;;;;11.90;4.73;;;11.80;99.90;;;;;;5093702;28;20204;-38
2022/05/21 00:15:45;;;;;;;5.20;4.60;;;11.80;99.90;;;;;;5094722;28;20179;-40
2022/05/21 00:18:10;;;;;;;6.47;4.67;;;11.80;99.90;;;;;;5076242;28;20199;-41
2022/05/21 00:20:48;;;;;;;6.80;5.10;;;11.80;99.90;;;;;;5094365;28;20213;-39
2022/05/21 00:23:35;;;;;;;7.77;5.43;;;11.80;99.90;;;;;;5076377;28;20171;-42
2022/05/21 00:26:18;;;;;;;6.33;5.00;;;11.80;99.90;;;;;;5094372;28;20559;-40
2022/05/21 00:28:46;;;;;;;9.63;5.07;;;11.80;99.90;;;;;;5094209;28;20214;-39
2022/05/21 00:31:14;;;;;;;9.47;5.43;;;11.80;99.90;;;;;;5094085;28;20674;-40
2022/05/21 00:33:41;;;;;;;6.43;4.70;;;11.80;99.90;;;;;;5075960;28;20190;-38
2022/05/21 00:36:10;;;;;;;7.77;5.03;;;11.80;99.90;;;;;;5094308;28;20688;-39
2022/05/21 00:38:37;;;;;;;8.93;5.53;;;11.80;99.90;;;;;;5075623;28;20545;-40
2022/05/21 00:41:03;;;;;;;8.90;5.10;;;11.80;99.90;;;;;;5076600;28;20183;-41
2022/05/21 00:43:40;;;;;;;7.23;4.90;;;11.80;99.90;;;;;;5094319;28;20282;-41
2022/05/21 00:46:13;;;;;;;9.23;5.23;;;11.80;99.90;;;;;;5094598;28;20170;-38
2022/05/21 00:48:40;;;;;;;8.93;5.20;;;11.80;99.90;;;;;;5093993;28;20193;-39
2022/05/21 00:51:10;;;;;;;10.03;4.20;;;11.70;99.90;;;;;;5093600;28;20205;-39
2022/05/21 00:53:37;;;;;;;6.17;4.70;;;11.70;99.90;;;;;;5093812;28;20196;-41
2022/05/21 00:56:04;;;;;;;7.70;4.47;;;11.70;99.90;;;;;;5093800;28;20178;-39
2022/05/21 01:01:17;;;;;;;8.03;4.80;;;11.70;99.90;;;;;;5094236;28;20635;-42
2022/05/21 01:03:44;;;;;;;8.07;3.80;;;11.70;99.90;;;;;;5093886;28;20257;-42
2022/05/21 01:06:11;;;;;;;6.40;4.03;;;11.70;99.90;;;;;;5076101;28;20267;-40
2022/05/21 01:08:38;;;;;;;5.27;3.70;;;11.70;99.90;;;;;;5093645;28;20205;-41
2022/05/21 01:11:10;;;;;;;7.50;3.77;;;11.70;99.90;;;;;;5093970;28;20214;-40
2022/05/21 01:13:38;;;;;;;9.10;3.90;;;11.60;99.90;;;;;;5093893;28;20163;-42
2022/05/21 01:16:04;;;;;;;6.37;3.40;;;11.60;99.90;;;;;;5093955;28;20292;-41
2022/05/21 01:18:30;;;;;;;5.67;3.50;;;11.60;99.90;;;;;;5093988;28;20212;-41
2022/05/21 01:20:58;;;;;;;5.17;3.37;;;11.60;99.90;;;;;;5093671;28;20183;-41
2022/05/21 01:23:25;;;;;;;6.27;3.27;;;11.60;99.90;;;;;;5094479;28;20505;-38
2022/05/21 01:25:52;;;;;;;5.37;3.07;;;11.50;99.90;;;;;;5097900;28;20182;-40
2022/05/21 01:28:21;;;;;;;3.87;2.63;;;11.50;99.90;;;;;;5098253;28;20693;-40
2022/05/21 01:30:48;;;;;;;4.83;2.73;;;11.50;99.90;;;;;;5099479;28;20231;-42
2022/05/21 01:33:17;;;;;;;10.10;2.67;;;11.50;99.90;;;;;;5099050;28;20219;-40
2022/05/21 01:35:44;;;;;;;4.40;2.67;;;11.50;99.90;;;;;;5099575;28;20170;-42
2022/05/21 01:38:11;;;;;;;6.80;2.60;;;11.50;99.90;;;;;;5097442;28;20201;-41
2022/05/21 01:40:37;;;;;;;5.77;2.80;;;11.50;99.90;;;;;;5097021;28;20206;-43
2022/05/21 01:45:52;;;;;;;8.93;2.50;;;11.40;99.90;;;;;;5097539;28;20526;-40
2022/05/21 01:48:19;;;;;;;4.97;2.17;;;11.50;99.90;;;;;;5097221;28;20288;-42
2022/05/21 01:50:45;;;;;;;4.03;1.80;;;11.50;99.90;;;;;;5097758;28;20174;-42
2022/05/21 01:53:11;;;;;;;3.90;1.87;;;11.50;99.90;;;;;;5079542;28;20243;-45
2022/05/21 01:55:38;;;;;;;4.47;1.93;;;11.60;99.90;;;;;;5097963;28;20189;-46
2022/05/21 01:58:04;;;;;;;6.77;2.33;;;11.60;99.90;;;;;;5097576;28;20597;-44
2022/05/21 02:00:30;;;;;;;5.33;2.10;;;11.60;99.90;;;;;;5097712;28;20718;-44
2022/05/21 02:02:56;;;;;;;5.07;2.50;;;11.70;99.90;;;;;;5098041;28;20181;-44
2022/05/21 02:05:22;;;;;;;4.13;2.07;;;11.70;99.90;;;;;;5097936;28;20193;-46
2022/05/21 02:07:48;;;;;;;5.93;1.67;;;11.60;99.90;;;;;;5097569;28;20677;-45
2022/05/21 02:10:13;;;;;;;6.10;1.77;;;11.60;99.90;;;;;;5098341;28;20248;-44
2022/05/21 02:12:39;;;;;;;3.57;1.63;;;11.60;99.90;;;;;;5079372;28;20192;-45
2022/05/21 02:15:06;;;;;;;7.17;2.03;;;11.60;99.90;;;;;;5097802;28;20183;-45
2022/05/21 02:17:32;;;;;;;4.37;1.93;;;11.60;99.90;;;;;;5096540;28;20251;-44
2022/05/21 02:19:58;;;;;;;2.87;1.57;;;11.60;99.90;;;;;;5096665;28;20214;-44
2022/05/21 02:22:24;;;;;;;4.50;1.83;;;11.60;99.90;;;;;;5097079;28;20255;-45
2022/05/21 02:24:49;;;;;;;6.33;1.80;;;11.50;99.90;;;;;;5098392;28;20325;-45
2022/05/21 02:27:15;;;;;;;3.13;1.57;;;11.50;99.90;;;;;;5098067;28;20289;-44
2022/05/21 02:29:42;;;;;;;6.03;1.47;;;11.40;99.90;;;;;;5097125;28;20226;-45
2022/05/21 02:32:09;;;;;;;1.97;1.17;;;11.40;99.90;;;;;;5096815;28;20266;-45
2022/05/21 02:34:34;;;;;;;6.13;2.03;;;11.40;99.90;;;;;;5096454;28;20194;-46
2022/05/21 02:39:44;;;;;;;2.97;1.73;;;11.30;99.90;;;;;;5097116;28;20200;-45
2022/05/21 02:44:55;;;;;;;8.00;1.60;;;11.30;99.90;;;;;;5096875;28;20641;-45
2022/05/21 02:47:22;;;;;;;3.97;1.80;;;11.40;99.90;;;;;;5096528;28;20202;-44
2022/05/21 02:49:48;;;;;;;7.27;2.23;;;11.40;99.90;;;;;;5096754;28;20184;-46
2022/05/21 02:52:15;;;;;;;11.33;1.90;;;11.40;99.90;;;;;;5096941;28;20196;-45
2022/05/21 02:54:41;;;;;;;2.83;1.40;;;11.40;99.90;;;;;;5096345;28;20185;-44
2022/05/21 02:57:09;;;;;;;5.43;1.40;;;11.50;99.90;;;;;;5096225;28;20213;-44
2022/05/21 02:59:36;;;;;;;4.77;1.80;;;11.50;99.90;;;;;;5096024;28;20225;-43
2022/05/21 03:02:03;;;;;;;6.87;1.60;;;11.50;99.90;;;;;;5096526;28;20634;-44
2022/05/21 03:04:28;;;;;;;2.63;1.30;;;11.60;99.90;;;;;;5096529;28;20182;-45
2022/05/21 03:06:54;;;;;;;7.63;1.70;;;11.60;99.90;;;;;;5096100;28;20178;-45
2022/05/21 03:12:04;;;;;;;4.53;1.43;;;13.10;99.90;;;;;;5096631;28;20179;-44
2022/05/21 03:14:30;;;;;;;7.57;1.50;;;11.60;99.90;;;;;;5078330;28;20170;-45
2022/05/21 03:16:59;;;;;;;4.43;1.37;;;11.70;99.90;;;;;;5095824;28;20186;-45
2022/05/21 03:19:29;;;;;;;3.37;1.30;;;11.70;99.90;;;;;;5096366;28;20263;-44
2022/05/21 03:21:55;;;;;;;4.50;1.60;;;11.70;99.90;;;;;;5095990;28;20554;-46
2022/05/21 03:24:20;;;;;;;6.37;1.43;;;11.70;99.90;;;;;;5095855;28;20177;-45
2022/05/21 03:26:46;;;;;;;5.80;1.80;;;11.80;99.90;;;;;;5095385;28;20180;-46
2022/05/21 03:29:12;;;;;;;3.33;1.27;;;11.80;99.90;;;;;;5095176;28;20684;-45
2022/05/21 03:31:38;;;;;;;5.43;1.50;;;11.80;99.90;;;;;;5095181;28;20261;-44
2022/05/21 03:34:03;;;;;;;6.70;1.60;;;11.80;99.90;;;;;;5095440;28;20278;-45
2022/05/21 03:36:29;;;;;;;5.03;1.60;;;11.90;99.90;;;;;;5094999;28;20227;-43
2022/05/21 03:38:55;;;;;;;3.37;1.63;;;11.90;99.90;;;;;;5095451;28;20707;-47
2022/05/21 03:41:22;;;;;;;9.13;1.80;;;11.90;99.90;;;;;;5076961;28;20632;-46
2022/05/21 03:43:47;;;;;;;3.47;1.53;;;11.90;99.90;;;;;;5094920;28;20748;-45
2022/05/21 03:46:13;;;;;;;5.33;1.83;;;11.90;99.90;;;;;;5094988;28;20182;-46
2022/05/21 03:48:39;;;;;;;4.73;1.57;;;11.90;99.90;;;;;;5095058;28;20658;-46
2022/05/21 03:51:05;;;;;;;6.37;1.63;;;11.90;99.90;;;;;;5095534;28;20169;-46
2022/05/21 03:53:31;;;;;;;6.43;1.40;;;12.00;99.90;;;;;;5095673;28;20597;-45
2022/05/21 03:55:57;;;;;;;7.33;1.50;;;12.00;99.90;;;;;;5095479;28;20203;-45
2022/05/21 03:58:23;;;;;;;6.23;1.90;;;11.90;99.90;;;;;;5077223;28;20292;-44
2022/05/21 04:00:48;;;;;;;4.87;1.73;;;12.00;99.90;;;;;;5095502;28;20195;-47
2022/05/21 04:03:14;;;;;;;7.23;1.53;;;11.90;99.90;;;;;;5095371;28;20184;-45
2022/05/21 04:05:40;;;;;;;6.80;1.70;;;12.00;99.90;;;;;;5076739;28;20196;-45
2022/05/21 04:08:06;;;;;;;3.13;1.60;;;11.90;99.90;;;;;;5095039;28;20198;-46
2022/05/21 04:10:32;;;;;;;4.10;1.60;;;12.00;99.90;;;;;;5095343;28;20190;-46
2022/05/21 04:12:58;;;;;;;5.03;1.63;;;12.00;99.90;;;;;;5095710;28;20172;-45
2022/05/21 04:15:25;;;;;;;3.03;1.37;;;12.00;99.90;;;;;;5096023;28;20187;-44
2022/05/21 04:17:51;;;;;;;4.47;1.80;;;12.00;99.90;;;;;;5096240;28;20259;-43
2022/05/21 04:20:17;;;;;;;4.40;1.80;;;12.00;99.90;;;;;;5095951;28;20230;-41
2022/05/21 04:22:43;;;;;;;4.27;1.60;;;12.00;99.90;;;;;;5077087;28;20173;-41
2022/05/21 04:25:10;;;;;;;3.17;1.80;;;12.00;99.90;;;;;;5095326;28;20173;-42
2022/05/21 04:27:39;;;;;;;4.50;1.50;;;12.10;99.90;;;;;;5095409;28;20623;-41
2022/05/21 04:30:07;;;;;;;7.57;1.93;;;12.10;99.90;;;;;;5094921;28;20188;-44
2022/05/21 04:32:33;;;;;;;4.87;1.87;;;12.10;99.90;;;;;;5094753;28;20517;-43
2022/05/21 04:34:58;;;;;;;6.33;1.70;;;12.10;99.90;;;;;;5094482;28;20181;-44
2022/05/21 04:37:24;;;;;;;3.60;1.27;;;12.10;99.90;;;;;;5094239;28;20213;-43
2022/05/21 04:39:49;;;;;;;8.03;1.77;;;12.10;99.90;;;;;;5094582;28;20231;-42
2022/05/21 04:42:15;;;;;;;6.33;1.70;;;12.10;99.90;;;;;;5093580;28;20227;-43
2022/05/21 04:44:41;;;;;;;5.13;2.07;;;12.10;99.90;;;;;;5093624;28;20184;-43
2022/05/21 04:47:06;;;;;;;5.90;1.33;;;12.20;99.90;;;;;;5093661;28;20494;-42
2022/05/21 04:49:34;;;;;;;7.60;1.80;;;12.20;99.90;;;;;;5093832;28;20259;-43
2022/05/21 04:52:02;;;;;;;5.63;1.50;;;12.20;99.90;;;;;;5093522;28;20181;-42
2022/05/21 04:54:28;;;;;;;2.80;1.30;;;12.20;99.90;;;;;;5093908;28;20181;-41
2022/05/21 04:56:54;;;;;;;5.40;1.63;;;12.20;99.90;;;;;;5093708;28;20240;-43
2022/05/21 04:59:19;;;;;;;5.17;1.87;;;12.20;99.90;;;;;;5095331;28;20217;-42
2022/05/21 05:01:45;;;;;;;3.47;1.70;;;12.20;99.90;;;;;;5097973;28;20512;-43
2022/05/21 05:04:11;;;;;;;3.17;1.23;;;12.30;99.90;;;;;;5098070;28;20232;-43
2022/05/21 05:06:38;;;;;;;3.13;1.63;;;12.30;99.90;;;;;;5098022;28;20509;-43
2022/05/21 05:09:08;;;;;;;3.83;1.90;;;12.30;99.90;;;;;;5098236;28;20209;-41
2022/05/21 05:11:34;;;;;;;6.03;1.77;;;12.30;99.90;;;;;;5097520;28;20212;-42
2022/05/21 05:13:59;;;;;;;7.33;1.87;;;12.30;99.90;;;;;;5097924;28;20186;-43
2022/05/21 05:16:25;;;;;;;5.30;1.70;;;12.30;99.90;;;;;;5098407;28;20261;-42
2022/05/21 05:18:50;;;;;;;6.07;2.00;;;12.30;99.90;;;;;;5097426;28;20208;-42
2022/05/21 05:21:16;;;;;;;5.23;2.00;;;12.30;99.90;;;;;;5097702;28;20177;-43
2022/05/21 05:23:42;;;;;;;4.87;1.87;;;12.40;99.90;;;;;;5097925;28;20565;-45
2022/05/21 05:26:07;;;;;;;6.93;2.57;;;12.30;99.90;;;;;;5097818;28;20191;-43
2022/05/21 05:28:33;;;;;;;5.53;1.67;;;12.30;99.90;;;;;;5097245;28;20403;-42
2022/05/21 05:30:58;;;;;;;7.67;2.13;;;12.40;99.90;;;;;;5097386;28;20189;-43
2022/05/21 05:33:26;;;;;;;6.20;2.20;;;12.40;99.90;;;;;;5079143;28;20685;-43
2022/05/21 05:35:52;;;;;;;10.50;2.37;;;12.40;99.90;;;;;;5097436;28;20178;-43
2022/05/21 05:38:19;;;;;;;4.40;1.90;;;12.40;99.90;;;;;;5097730;28;20229;-43
2022/05/21 05:40:47;;;;;;;7.63;2.33;;;12.40;99.90;;;;;;5097171;28;20201;-44
2022/05/21 05:43:15;;;;;;;9.43;2.13;;;12.50;99.90;;;;;;5097337;28;20178;-42
2022/05/21 05:45:40;;;;;;;4.93;2.13;;;12.40;99.90;;;;;;5097079;28;20192;-42
2022/05/21 05:48:07;;;;;;;5.10;2.33;;;12.50;99.90;;;;;;5097223;28;20197;-43
2022/05/21 05:50:33;;;;;;;6.37;2.53;;;12.50;99.90;;;;;;5097499;28;20538;-43
2022/05/21 05:53:04;;;;;;;7.10;2.43;;;12.50;99.90;;;;;;5097323;28;20185;-44
2022/05/21 05:55:31;;;;;;;6.17;2.30;;;12.60;99.90;;;;;;5096853;28;20217;-44
2022/05/21 05:57:57;;;;;;;7.53;3.00;;;12.60;99.90;;;;;;5097041;28;20274;-42
2022/05/21 06:00:23;;;;;;;7.90;2.90;;;12.60;99.90;;;;;;5097018;28;20304;-45
2022/05/21 06:02:58;;;;;;;7.83;2.60;;;12.60;99.90;;;;;;5097049;28;20206;-43
2022/05/21 06:05:30;;;;;;;8.43;2.67;;;12.70;99.90;;;;;;5097285;28;20159;-43
2022/05/21 06:08:00;;;;;;;6.80;2.57;;;12.70;99.90;;;;;;5097490;28;20196;-43
2022/05/21 06:10:29;;;;;;;8.40;2.33;;;12.80;99.90;;;;;;5098650;28;20178;-44
2022/05/21 06:12:56;;;;;;;6.63;2.77;;;12.80;99.90;;;;;;5097140;28;20177;-42
2022/05/21 06:15:22;;;;;;;13.80;2.87;;;12.80;99.90;;;;;;5097006;28;20190;-43
2022/05/21 06:17:49;;;;;;;11.17;2.87;;;12.90;99.90;;;;;;5096870;28;20600;-43
2022/05/21 06:20:17;;;;;;;8.90;3.20;;;13.00;99.90;;;;;;5096893;28;20346;-44
2022/05/21 06:22:47;;;;;;;12.33;2.83;;;13.00;99.90;;;;;;5096952;28;20165;-44
2022/05/21 06:25:17;;;;;;;11.83;3.17;;;13.10;99.90;;;;;;5098296;28;20288;-44
2022/05/21 06:27:44;;;;;;;8.37;2.93;;;13.20;99.90;;;;;;5098167;28;20196;-44
2022/05/21 06:30:12;;;;;;;9.43;2.93;;;13.20;99.90;;;;;;5100258;28;20167;-42
2022/05/21 06:32:38;;;;;;;6.80;2.93;;;13.40;99.90;;;;;;5098090;28;20185;-43
2022/05/21 06:35:04;;;;;;;8.77;3.10;;;13.40;99.90;;;;;;5097964;28;20260;-43
2022/05/21 06:37:31;;;;;;;9.30;3.00;;;13.50;99.90;;;;;;5096919;28;20677;-44
2022/05/21 06:39:56;;;;;;;9.20;3.03;;;13.60;99.90;;;;;;5099168;28;20203;-44
2022/05/21 06:42:23;;;;;;;5.40;2.93;;;13.60;99.90;;;;;;5098931;28;20181;-45
2022/05/21 06:44:51;;;;;;;10.43;2.70;;;13.60;99.90;;;;;;5100345;28;20171;-43
2022/05/21 06:47:19;;;;;;;9.57;3.17;;;13.70;99.90;;;;;;5096659;28;20197;-45
2022/05/21 06:49:46;;;;;;;12.43;3.80;;;13.70;99.90;;;;;;5088237;28;20257;-42
2022/05/21 06:52:11;;;;;;;10.73;3.57;;;13.70;99.90;;;;;;5096912;28;20185;-44
2022/05/21 06:54:37;;;;;;;10.87;3.43;;;13.70;99.90;;;;;;5096852;28;20270;-45
2022/05/21 06:57:08;;;;;;;10.00;3.50;;;13.70;99.90;;;;;;5096755;28;20182;-46
2022/05/21 06:59:34;;;;;;;6.67;3.33;;;13.80;99.90;;;;;;5096358;28;20223;-43
2022/05/21 07:02:00;;;;;;;7.00;3.13;;;13.80;99.90;;;;;;5097464;28;20174;-44
2022/05/21 07:10:08;;;;;;;6.83;3.00;;;14.00;99.90;;;;;;5096708;28;20170;-44
2022/05/21 07:12:35;;;;;;;11.63;3.60;;;14.00;99.90;;;;;;5097082;28;20548;-43
2022/05/21 07:15:03;;;;;;;6.27;2.53;;;14.10;99.90;;;;;;5096150;28;20188;-42
2022/05/21 07:17:29;;;;;;;9.03;3.47;;;14.10;99.90;;;;;;5095869;28;20195;-43
2022/05/21 07:19:54;;;;;;;10.40;3.37;;;14.20;99.90;;;;;;5095915;28;20203;-44
2022/05/21 07:22:21;;;;;;;12.13;4.07;;;14.10;99.90;;;;;;5096026;28;20235;-43
2022/05/21 07:24:46;;;;;;;9.03;3.10;;;14.20;99.90;;;;;;5096257;28;20209;-44
2022/05/21 07:27:15;;;;;;;6.77;3.50;;;14.30;99.90;;;;;;5095956;28;20191;-42
2022/05/21 07:29:42;;;;;;;11.50;3.33;;;14.40;99.90;;;;;;5096424;28;20662;-42
2022/05/21 07:32:22;;;;;;;7.60;2.97;;;14.40;99.90;;;;;;5096768;28;20225;-41
2022/05/21 07:34:47;;;;;;;11.77;3.63;;;14.50;99.90;;;;;;5096758;28;20184;-45
2022/05/21 07:37:13;;;;;;;7.93;2.43;;;14.50;99.90;;;;;;5096661;28;20697;-44
2022/05/21 07:39:40;;;;;;;9.53;3.60;;;14.60;99.90;;;;;;5097591;28;20601;-43
2022/05/21 07:42:07;;;;;;;10.80;3.00;;;14.60;99.90;;;;;;5099954;28;20209;-43
2022/05/21 07:44:34;;;;;;;10.00;3.17;;;14.70;99.90;;;;;;5099223;28;20343;-43
2022/05/21 07:46:59;;;;;;;10.60;3.30;;;14.70;99.90;;;;;;5097272;28;20649;-44
2022/05/21 07:49:25;;;;;;;18.23;3.43;;;14.90;99.90;;;;;;5098716;28;20175;-42
2022/05/21 07:51:51;;;;;;;8.43;3.13;;;15.00;99.90;;;;;;5094985;28;20185;-43
2022/05/21 07:54:18;;;;;;;8.17;3.17;;;15.00;99.90;;;;;;5095200;28;20641;-45
2022/05/21 07:56:43;;;;;;;4.60;2.40;;;15.10;99.90;;;;;;5076355;28;20761;-45
2022/05/21 07:59:09;;;;;;;7.07;3.43;;;15.50;99.90;;;;;;5094303;28;20214;-44
2022/05/21 08:01:35;;;;;;;6.50;3.43;;;15.70;99.90;;;;;;5094674;28;20220;-43
2022/05/21 08:04:00;;;;;;;6.53;2.63;;;15.80;99.90;;;;;;5094586;28;20175;-44
2022/05/21 08:06:26;;;;;;;10.17;3.13;;;15.80;99.90;;;;;;5094507;28;20274;-45
2022/05/21 08:08:54;;;;;;;7.10;2.33;;;15.90;99.90;;;;;;5094426;28;20220;-40
2022/05/21 08:11:20;;;;;;;7.93;2.80;;;16.00;99.90;;;;;;5094856;28;20587;-42
2022/05/21 08:13:46;;;;;;;9.63;3.00;;;16.20;99.90;;;;;;5094711;28;20178;-40
2022/05/21 08:16:14;;;;;;;9.20;2.97;;;16.20;99.90;;;;;;5094927;28;20506;-40
2022/05/21 08:18:40;;;;;;;9.33;2.97;;;16.20;99.90;;;;;;5094463;28;20194;-40
2022/05/21 08:21:06;;;;;;;12.67;2.93;;;16.20;99.90;;;;;;5076585;28;20213;-41
2022/05/21 08:29:00;;;;;;;7.47;2.80;;;16.10;99.90;;;;;;5104405;28;20588;-41
2022/05/21 08:31:26;;;;;;;6.13;2.60;;;16.10;99.90;;;;;;5104353;28;20253;-40
2022/05/21 08:33:51;;;;;;;9.63;2.33;;;16.00;99.90;;;;;;5076782;28;20648;-41
2022/05/21 08:36:19;;;;;;;10.03;2.67;;;16.10;99.90;;;;;;5094998;28;20511;-39
2022/05/21 08:38:45;;;;;;;8.50;2.70;;;16.20;99.90;;;;;;5093786;28;20203;-39
2022/05/21 08:41:31;;;;;;;9.53;3.03;;;16.20;99.90;;;;;;5093899;28;20681;-42
2022/05/21 08:44:12;;;;;;;6.63;2.77;;;16.10;99.90;;;;;;5093731;28;20171;-40
2022/05/21 08:47:06;;;;;;;7.17;2.47;;;16.20;99.90;;;;;;5094030;28;20175;-43
2022/05/21 08:50:01;;;;;;;9.13;2.57;;;16.30;99.90;;;;;;5093816;28;20163;-38
2022/05/21 08:52:38;;;;;;;8.03;1.90;;;16.30;99.90;;;;;;5094118;28;20518;-41
2022/05/21 08:55:08;;;;;;;6.93;2.70;;;16.30;99.90;;;;;;5076230;28;20175;-39
2022/05/21 08:58:00;;;;;;;10.40;2.80;;;16.30;99.90;;;;;;5093403;28;20222;-44
2022/05/21 09:00:43;;;;;;;7.90;2.77;;;16.50;99.90;;;;;;5085155;28;20223;-46
2022/05/21 09:03:11;;;;;;;6.33;2.40;;;16.80;99.90;;;;;;5075673;28;20194;-44
2022/05/21 09:05:41;;;;;;;10.47;2.83;;;17.00;99.90;;;;;;5075342;28;20729;-43
2022/05/21 09:08:07;;;;;;;9.23;3.00;;;17.10;99.90;;;;;;5093609;28;20199;-45
2022/05/21 09:10:54;;;;;;;9.63;3.07;;;17.40;99.90;;;;;;5093421;28;20661;-43
2022/05/21 09:13:44;;;;;;;9.00;2.60;;;17.30;99.90;;;;;;5075285;28;20257;-44
2022/05/21 09:18:57;;;;;;;8.60;3.10;;;17.30;99.90;;;;;;5093415;28;20231;-46
2022/05/21 09:21:26;;;;;;;7.37;2.63;;;17.40;99.90;;;;;;5075353;28;20175;-43
2022/05/21 09:23:55;;;;;;;8.10;2.63;;;17.60;99.90;;;;;;5093571;28;20254;-43
2022/05/21 09:26:28;;;;;;;7.03;2.87;;;17.90;99.90;;;;;;5093206;28;20182;-45
2022/05/21 09:29:18;;;;;;;6.63;2.37;;;18.10;99.90;;;;;;5093589;28;20206;-44
2022/05/21 09:31:44;;;;;;;11.93;2.83;;;18.20;99.90;;;;;;5093723;28;20159;-44
2022/05/21 09:34:26;;;;;;;9.13;2.60;;;18.10;99.90;;;;;;5093316;28;20171;-46
2022/05/21 09:36:52;;;;;;;7.03;2.60;;;18.10;99.90;;;;;;5092949;28;20179;-43
2022/05/21 09:39:38;;;;;;;8.30;2.67;;;17.90;99.90;;;;;;5075213;28;20301;-46
2022/05/21 09:42:07;;;;;;;8.73;3.00;;;18.00;99.90;;;;;;5093696;28;20159;-44
2022/05/21 09:47:24;;;;;;;8.37;3.00;;;18.40;99.90;;;;;;5097628;28;20210;-45
2022/05/21 09:50:09;;;;;;;7.03;2.20;;;18.50;99.90;;;;;;5096924;28;20178;-45
2022/05/21 09:52:38;;;;;;;7.50;2.60;;;18.60;99.90;;;;;;5096730;28;20183;-44
2022/05/21 09:55:26;;;;;;;5.97;2.37;;;18.60;99.90;;;;;;5078816;28;20265;-44
2022/05/21 09:57:54;;;;;;;9.07;2.90;;;18.60;99.90;;;;;;5096434;28;20263;-45
2022/05/21 10:00:36;;;;;;;10.20;3.60;;;18.60;99.90;;;;;;5078839;28;20701;-43
2022/05/21 10:03:07;;;;;;;7.10;3.10;;;18.50;99.90;;;;;;5079384;28;20175;-45
2022/05/21 10:05:50;;;;;;;7.07;2.67;;;18.60;99.90;;;;;;5097011;28;20162;-45
2022/05/21 10:11:35;;;;;;;7.47;3.23;;;18.60;99.90;;;;;;5096828;28;20170;-44
2022/05/21 10:14:05;;;;;;;9.57;3.10;;;18.80;99.90;;;;;;5078299;28;20171;-44
2022/05/21 10:16:48;;;;;;;7.80;2.90;;;18.90;99.90;;;;;;5078511;28;20183;-43
2022/05/21 10:19:51;;;;;;;7.00;2.80;;;18.90;99.90;;;;;;5096931;28;20202;-43
2022/05/21 10:22:56;;;;;;;6.50;2.53;;;18.90;99.90;;;;;;5096689;28;20174;-46
2022/05/21 10:25:27;;;;;;;8.40;3.10;;;18.80;99.90;;;;;;5096656;28;20175;-45
2022/05/21 10:28:26;;;;;;;10.53;2.90;;;18.90;99.90;;;;;;5096386;28;20210;-46
2022/05/21 10:31:19;;;;;;;8.90;2.80;;;19.00;99.90;;;;;;5096595;28;20232;-44
2022/05/21 10:33:58;;;;;;;4.20;2.53;;;19.20;99.90;;;;;;5096526;28;20657;-45
2022/05/21 10:36:43;;;;;;;3.50;2.20;;;19.40;99.90;;;;;;5096911;28;20170;-44
2022/05/21 10:39:46;;;;;;;7.27;2.87;;;19.60;99.90;;;;;;5096165;28;20705;-45
2022/05/21 10:42:45;;;;;;;5.57;2.50;;;19.80;99.90;;;;;;5096012;28;20622;-45
2022/05/21 10:45:34;;;;;;;4.53;2.30;;;19.90;99.90;;;;;;5077738;28;20206;-43
2022/05/21 10:48:21;;;;;;;5.73;2.20;;;19.90;99.90;;;;;;5077761;28;20256;-44
2022/05/21 10:51:09;;;;;;;5.33;2.50;;;19.90;99.90;;;;;;5096063;28;20167;-43
2022/05/21 10:53:53;;;;;;;5.13;2.00;;;19.90;99.90;;;;;;5094469;28;20187;-46
2022/05/21 10:56:30;;;;;;;7.43;2.20;;;20.00;99.90;;;;;;5095182;28;20216;-43
2022/05/21 10:59:23;;;;;;;4.90;1.80;;;20.20;99.90;;;;;;5095323;28;20309;-43
2022/05/21 11:02:10;;;;;;;6.47;2.33;;;20.30;99.90;;;;;;5096214;28;20163;-45
2022/05/21 11:05:12;;;;;;;4.57;2.10;;;20.30;99.90;;;;;;5077406;28;20216;-43
2022/05/21 11:07:56;;;;;;;6.83;1.90;;;20.20;99.90;;;;;;5095509;28;20191;-45
2022/05/21 11:10:30;;;;;;;6.03;1.70;;;20.00;99.90;;;;;;5096133;28;20236;-44
2022/05/21 11:13:09;;;;;;;6.33;2.40;;;19.90;99.90;;;;;;5095325;28;20162;-44
2022/05/21 11:15:47;;;;;;;8.60;2.27;;;19.90;99.90;;;;;;5095731;28;20182;-44
2022/05/21 11:18:13;;;;;;;5.63;2.00;;;20.00;99.90;;;;;;5095495;28;20197;-46
2022/05/21 11:20:46;;;;;;;6.27;2.53;;;20.10;99.90;;;;;;5095185;28;20199;-44
2022/05/21 11:23:21;;;;;;;6.20;2.30;;;20.30;99.90;;;;;;5095419;28;20242;-45
2022/05/21 11:26:09;;;;;;;5.33;2.13;;;20.50;99.90;;;;;;5095398;28;20162;-45
2022/05/21 11:28:43;;;;;;;4.13;2.00;;;20.70;99.90;;;;;;5095188;28;20666;-45
2022/05/21 11:39:47;;;;;;;3.97;1.80;;;21.10;99.90;;;;;;5095392;28;20194;-47
2022/05/21 11:42:16;;;;;;;6.20;1.87;;;21.20;99.90;;;;;;5095289;28;20167;-46
2022/05/21 11:45:01;;;;;;;6.60;2.30;;;21.10;99.90;;;;;;5095278;28;20199;-45
2022/05/21 11:47:28;;;;;;;7.50;2.07;;;21.00;99.90;;;;;;5094997;28;20282;-44
2022/05/21 11:49:57;;;;;;;6.57;2.20;;;21.00;99.90;;;;;;5076907;28;20265;-46
2022/05/21 11:52:26;;;;;;;5.63;2.20;;;20.90;99.90;;;;;;5095512;28;20246;-45
2022/05/21 11:55:14;;;;;;;3.27;1.90;;;21.00;99.90;;;;;;5095723;28;20183;-47
2022/05/21 11:57:47;;;;;;;4.60;1.73;;;21.00;99.90;;;;;;5095939;28;20199;-44
2022/05/21 12:00:24;;;;;;;7.40;2.30;;;21.10;99.90;;;;;;5097179;28;20198;-48
2022/05/21 12:02:56;;;;;;;4.83;2.13;;;21.20;99.90;;;;;;5096625;28;20237;-47
2022/05/21 12:05:46;;;;;;;7.97;2.47;;;21.40;99.90;;;;;;5096403;28;20181;-47
2022/05/21 12:08:15;;;;;;;6.40;2.07;;;21.50;99.90;;;;;;5095734;28;20709;-45
2022/05/21 12:11:02;;;;;;;5.97;1.90;;;21.70;99.90;;;;;;5078032;28;20179;-46
2022/05/21 12:13:33;;;;;;;4.00;1.93;;;21.90;99.90;;;;;;5095802;28;20179;-48
2022/05/21 12:16:17;;;;;;;6.27;1.97;;;22.00;99.90;;;;;;5094892;28;20665;-47
2022/05/21 12:18:49;;;;;;;8.27;2.30;;;22.10;99.90;;;;;;5096090;28;20203;-47
2022/05/21 12:21:32;;;;;;;8.77;2.30;;;22.10;99.90;;;;;;5096582;28;20575;-48
2022/05/21 12:24:07;;;;;;;5.37;2.40;;;22.10;99.90;;;;;;5095354;28;20202;-48
2022/05/21 12:26:43;;;;;;;5.87;2.10;;;22.30;99.90;;;;;;5096825;28;20155;-46
2022/05/21 12:29:24;;;;;;;5.23;2.23;;;22.40;99.90;;;;;;5095490;28;20708;-47
2022/05/21 12:31:56;;;;;;;6.30;2.43;;;22.50;99.90;;;;;;5095694;28;20661;-47
2022/05/21 12:35:03;;;;;;;9.23;2.87;;;22.50;99.90;;;;;;5077877;28;20174;-39
2022/05/21 12:37:38;;;;;;;3.73;1.90;;;22.50;99.90;;;;;;5094555;28;20268;-43
2022/05/21 12:40:15;;;;;;;3.33;1.80;;;22.50;99.90;;;;;;5076913;28;20198;-42
2022/05/21 12:42:47;;;;;;;3.90;2.23;;;22.60;99.90;;;;;;5096382;28;20170;-41
2022/05/21 12:45:35;;;;;;;4.97;2.47;;;22.50;99.90;;;;;;5094570;28;20244;-42
2022/05/21 12:48:21;;;;;;;5.47;2.13;;;22.60;99.90;;;;;;5093707;28;20218;-43
2022/05/21 12:50:52;;;;;;;3.53;1.67;;;22.80;99.90;;;;;;5094246;28;20622;-43
2022/05/21 12:53:30;;;;;;;4.13;1.70;;;23.00;99.90;;;;;;5094355;28;20527;-42
2022/05/21 12:56:07;;;;;;;5.23;1.63;;;23.10;99.90;;;;;;5075782;28;20203;-42
2022/05/21 12:58:32;;;;;;;5.07;2.37;;;23.20;99.90;;;;;;5059125;28;20218;-44
2022/05/21 13:01:00;;;;;;;4.30;1.70;;;23.20;99.90;;;;;;5075648;28;20198;-42
2022/05/21 13:03:32;;;;;;;5.20;2.07;;;23.10;99.90;;;;;;5075956;28;20767;-43
2022/05/21 13:06:04;;;;;;;3.73;1.87;;;23.10;99.90;;;;;;5093981;28;20189;-42
2022/05/21 13:08:32;;;;;;;6.17;1.93;;;23.10;99.90;;;;;;5093474;28;20191;-43
2022/05/21 13:11:18;;;;;;;6.97;2.07;;;23.00;99.90;;;;;;5093653;28;20179;-44
2022/05/21 13:14:08;;;;;;;5.17;1.90;;;22.90;99.90;;;;;;5093496;28;20182;-43
2022/05/21 13:16:34;;;;;;;6.30;2.07;;;22.90;99.90;;;;;;5093482;28;20189;-43
2022/05/21 13:19:31;;;;;;;5.63;1.77;;;22.90;99.90;;;;;;5093662;28;20206;-41
2022/05/21 13:22:06;;;;;;;6.57;2.20;;;22.90;99.90;;;;;;5097921;28;20159;-42
2022/05/21 13:24:47;;;;;;;3.90;1.83;;;23.00;99.90;;;;;;5098357;28;20163;-42
2022/05/21 13:27:20;;;;;;;4.63;1.87;;;23.00;99.90;;;;;;5097480;28;20205;-43
2022/05/21 13:29:47;;;;;;;4.53;1.80;;;23.00;99.90;;;;;;5097887;28;20179;-41
2022/05/21 13:32:25;;;;;;;10.00;2.57;;;23.10;99.90;;;;;;5097841;28;20166;-42
2022/05/21 13:34:57;;;;;;;5.97;1.90;;;23.10;99.90;;;;;;5097164;28;20166;-43
2022/05/21 13:37:41;;;;;;;7.80;1.77;;;23.10;99.90;;;;;;5097550;28;20206;-43
2022/05/21 13:40:29;;;;;;;5.47;2.07;;;23.10;99.90;;;;;;5097512;28;20328;-43
2022/05/21 13:43:10;;;;;;;6.27;2.50;;;23.10;99.90;;;;;;5097428;28;20162;-42
2022/05/21 13:45:38;;;;;;;4.07;1.80;;;23.10;99.90;;;;;;5098178;28;20160;-43
2022/05/21 13:48:15;;;;;;;5.10;1.93;;;23.10;99.90;;;;;;5097403;28;20606;-42